sensor_id;sensor_type;location;lat;lon;timestamp;temperature;humidity
9987;DHT22;5033;46.310;11.214;2024-02-21T00:01:41;7.30;95.20
9987;DHT22;5033;46.310;11.214;2024-02-21T00:04:08;7.20;95.40
9987;DHT22;5033;46.310;11.214;2024-02-21T00:06:34;7.20;95.30
9987;DHT22;5033;46.310;11.214;2024-02-21T00:09:03;7.20;95.00
9987;DHT22;5033;46.310;11.214;2024-02-21T00:11:30;7.20;95.30
9987;DHT22;5033;46.310;11.214;2024-02-21T00:13:57;7.20;95.30
9987;DHT22;5033;46.310;11.214;2024-02-21T00:16:24;7.20;95.30
9987;DHT22;5033;46.310;11.214;2024-02-21T00:18:51;7.20;95.30
9987;DHT22;5033;46.310;11.214;2024-02-21T00:21:18;7.20;95.30
9987;DHT22;5033;46.310;11.214;2024-02-21T00:23:45;7.20;95.50
9987;DHT22;5033;46.310;11.214;2024-02-21T00:26:14;7.20;95.60
9987;DHT22;5033;46.310;11.214;2024-02-21T00:28:41;7.20;95.50
9987;DHT22;5033;46.310;11.214;2024-02-21T00:31:08;7.20;95.30
9987;DHT22;5033;46.310;11.214;2024-02-21T00:33:35;7.10;95.20
9987;DHT22;5033;46.310;11.214;2024-02-21T00:36:03;7.20;95.40
9987;DHT22;5033;46.310;11.214;2024-02-21T00:38:30;7.10;95.50
9987;DHT22;5033;46.310;11.214;2024-02-21T00:40:57;7.10;95.60
9987;DHT22;5033;46.310;11.214;2024-02-21T00:43:26;7.00;95.90
9987;DHT22;5033;46.310;11.214;2024-02-21T00:45:53;7.00;95.90
9987;DHT22;5033;46.310;11.214;2024-02-21T00:48:20;7.00;96.40
9987;DHT22;5033;46.310;11.214;2024-02-21T00:50:47;7.00;96.20
9987;DHT22;5033;46.310;11.214;2024-02-21T00:53:14;7.00;96.50
9987;DHT22;5033;46.310;11.214;2024-02-21T00:55:41;7.00;96.60
9987;DHT22;5033;46.310;11.214;2024-02-21T00:58:09;7.00;96.50
9987;DHT22;5033;46.310;11.214;2024-02-21T01:00:37;6.90;96.00
9987;DHT22;5033;46.310;11.214;2024-02-21T01:03:04;6.90;96.30
9987;DHT22;5033;46.310;11.214;2024-02-21T01:05:31;6.90;96.30
9987;DHT22;5033;46.310;11.214;2024-02-21T01:07:58;6.80;96.60
9987;DHT22;5033;46.310;11.214;2024-02-21T01:10:25;6.80;96.80
9987;DHT22;5033;46.310;11.214;2024-02-21T01:12:52;6.80;96.60
9987;DHT22;5033;46.310;11.214;2024-02-21T01:15:19;6.70;96.90
9987;DHT22;5033;46.310;11.214;2024-02-21T01:17:48;6.70;96.70
9987;DHT22;5033;46.310;11.214;2024-02-21T01:20:20;6.70;96.50
9987;DHT22;5033;46.310;11.214;2024-02-21T01:22:47;6.60;96.60
9987;DHT22;5033;46.310;11.214;2024-02-21T01:25:14;6.50;96.60
9987;DHT22;5033;46.310;11.214;2024-02-21T01:27:41;6.50;96.90
9987;DHT22;5033;46.310;11.214;2024-02-21T01:30:09;6.50;97.00
9987;DHT22;5033;46.310;11.214;2024-02-21T01:32:37;6.50;97.20
9987;DHT22;5033;46.310;11.214;2024-02-21T01:35:07;6.50;97.10
9987;DHT22;5033;46.310;11.214;2024-02-21T01:37:34;6.50;97.40
9987;DHT22;5033;46.310;11.214;2024-02-21T01:40:01;6.50;97.70
9987;DHT22;5033;46.310;11.214;2024-02-21T01:42:29;6.50;97.50
9987;DHT22;5033;46.310;11.214;2024-02-21T01:44:56;6.50;97.60
9987;DHT22;5033;46.310;11.214;2024-02-21T01:47:24;6.50;97.80
9987;DHT22;5033;46.310;11.214;2024-02-21T01:49:51;6.50;97.70
9987;DHT22;5033;46.310;11.214;2024-02-21T01:52:19;6.50;97.80
9987;DHT22;5033;46.310;11.214;2024-02-21T01:54:47;6.50;97.80
9987;DHT22;5033;46.310;11.214;2024-02-21T01:57:14;6.50;97.80
9987;DHT22;5033;46.310;11.214;2024-02-21T01:59:42;6.50;97.60
9987;DHT22;5033;46.310;11.214;2024-02-21T02:02:09;6.50;97.50
9987;DHT22;5033;46.310;11.214;2024-02-21T02:04:38;6.50;97.70
9987;DHT22;5033;46.310;11.214;2024-02-21T02:07:07;6.40;98.00
9987;DHT22;5033;46.310;11.214;2024-02-21T02:09:35;6.40;97.90
9987;DHT22;5033;46.310;11.214;2024-02-21T02:12:03;6.40;98.10
9987;DHT22;5033;46.310;11.214;2024-02-21T02:14:30;6.30;97.80
9987;DHT22;5033;46.310;11.214;2024-02-21T02:16:57;6.20;97.90
9987;DHT22;5033;46.310;11.214;2024-02-21T02:19:24;6.20;97.80
9987;DHT22;5033;46.310;11.214;2024-02-21T02:21:53;6.20;97.60
9987;DHT22;5033;46.310;11.214;2024-02-21T02:24:24;6.10;97.90
9987;DHT22;5033;46.310;11.214;2024-02-21T02:26:52;6.10;98.30
9987;DHT22;5033;46.310;11.214;2024-02-21T02:29:19;6.10;98.50
9987;DHT22;5033;46.310;11.214;2024-02-21T02:31:46;6.00;98.70
9987;DHT22;5033;46.310;11.214;2024-02-21T02:34:13;6.00;99.30
9987;DHT22;5033;46.310;11.214;2024-02-21T02:36:39;5.90;99.20
9987;DHT22;5033;46.310;11.214;2024-02-21T02:39:06;5.90;99.20
9987;DHT22;5033;46.310;11.214;2024-02-21T02:41:36;5.90;99.20
9987;DHT22;5033;46.310;11.214;2024-02-21T02:44:03;5.90;99.20
9987;DHT22;5033;46.310;11.214;2024-02-21T02:46:30;5.90;99.10
9987;DHT22;5033;46.310;11.214;2024-02-21T02:48:57;6.00;99.40
9987;DHT22;5033;46.310;11.214;2024-02-21T02:51:24;6.00;99.30
9987;DHT22;5033;46.310;11.214;2024-02-21T02:53:51;6.00;99.30
9987;DHT22;5033;46.310;11.214;2024-02-21T02:56:18;5.90;99.50
9987;DHT22;5033;46.310;11.214;2024-02-21T02:58:47;5.90;99.90
9987;DHT22;5033;46.310;11.214;2024-02-21T03:01:14;5.80;99.40
9987;DHT22;5033;46.310;11.214;2024-02-21T03:03:41;5.80;99.40
9987;DHT22;5033;46.310;11.214;2024-02-21T03:06:08;5.80;99.50
9987;DHT22;5033;46.310;11.214;2024-02-21T03:08:35;5.80;99.70
9987;DHT22;5033;46.310;11.214;2024-02-21T03:11:01;5.80;99.80
9987;DHT22;5033;46.310;11.214;2024-02-21T03:13:28;5.80;99.70
9987;DHT22;5033;46.310;11.214;2024-02-21T03:15:57;5.80;99.80
9987;DHT22;5033;46.310;11.214;2024-02-21T03:18:24;5.80;99.90
9987;DHT22;5033;46.310;11.214;2024-02-21T03:20:51;5.80;99.90
9987;DHT22;5033;46.310;11.214;2024-02-21T03:23:18;5.80;99.90
9987;DHT22;5033;46.310;11.214;2024-02-21T03:25:45;5.80;99.90
9987;DHT22;5033;46.310;11.214;2024-02-21T03:28:13;5.70;99.90
9987;DHT22;5033;46.310;11.214;2024-02-21T03:30:40;5.70;99.90
9987;DHT22;5033;46.310;11.214;2024-02-21T03:33:08;5.80;99.90
9987;DHT22;5033;46.310;11.214;2024-02-21T03:35:35;5.80;99.90
9987;DHT22;5033;46.310;11.214;2024-02-21T03:38:02;5.70;99.90
9987;DHT22;5033;46.310;11.214;2024-02-21T03:40:29;5.70;99.90
9987;DHT22;5033;46.310;11.214;2024-02-21T03:42:56;5.60;99.90
9987;DHT22;5033;46.310;11.214;2024-02-21T03:45:23;5.60;99.90
9987;DHT22;5033;46.310;11.214;2024-02-21T03:47:50;5.50;99.90
9987;DHT22;5033;46.310;11.214;2024-02-21T03:50:18;5.40;99.90
9987;DHT22;5033;46.310;11.214;2024-02-21T03:52:46;5.40;99.90
9987;DHT22;5033;46.310;11.214;2024-02-21T03:55:13;5.40;99.90
9987;DHT22;5033;46.310;11.214;2024-02-21T03:57:40;5.30;99.90
9987;DHT22;5033;46.310;11.214;2024-02-21T04:00:08;5.30;99.90
9987;DHT22;5033;46.310;11.214;2024-02-21T04:02:37;5.30;99.90
9987;DHT22;5033;46.310;11.214;2024-02-21T04:05:04;5.30;99.90
9987;DHT22;5033;46.310;11.214;2024-02-21T04:07:36;5.30;99.90
9987;DHT22;5033;46.310;11.214;2024-02-21T04:10:04;5.40;99.90
9987;DHT22;5033;46.310;11.214;2024-02-21T04:12:31;5.40;99.90
9987;DHT22;5033;46.310;11.214;2024-02-21T04:14:58;5.40;99.90
9987;DHT22;5033;46.310;11.214;2024-02-21T04:17:25;5.40;99.90
9987;DHT22;5033;46.310;11.214;2024-02-21T04:20:02;5.40;99.90
9987;DHT22;5033;46.310;11.214;2024-02-21T04:22:31;5.40;99.90
9987;DHT22;5033;46.310;11.214;2024-02-21T04:25:01;5.40;99.90
9987;DHT22;5033;46.310;11.214;2024-02-21T04:27:28;5.40;99.90
9987;DHT22;5033;46.310;11.214;2024-02-21T04:29:55;5.30;99.90
9987;DHT22;5033;46.310;11.214;2024-02-21T04:32:22;5.30;99.90
9987;DHT22;5033;46.310;11.214;2024-02-21T04:34:49;5.20;99.90
9987;DHT22;5033;46.310;11.214;2024-02-21T04:37:16;5.20;99.90
9987;DHT22;5033;46.310;11.214;2024-02-21T04:39:42;5.20;99.90
9987;DHT22;5033;46.310;11.214;2024-02-21T04:42:11;5.30;99.90
9987;DHT22;5033;46.310;11.214;2024-02-21T04:44:38;5.20;99.90
9987;DHT22;5033;46.310;11.214;2024-02-21T04:47:05;5.20;99.90
9987;DHT22;5033;46.310;11.214;2024-02-21T04:49:32;5.20;99.90
9987;DHT22;5033;46.310;11.214;2024-02-21T04:51:59;5.20;99.90
9987;DHT22;5033;46.310;11.214;2024-02-21T04:54:26;5.10;99.90
9987;DHT22;5033;46.310;11.214;2024-02-21T04:56:53;5.10;99.90
9987;DHT22;5033;46.310;11.214;2024-02-21T04:59:22;5.10;99.90
9987;DHT22;5033;46.310;11.214;2024-02-21T05:01:49;5.10;99.90
9987;DHT22;5033;46.310;11.214;2024-02-21T05:04:16;5.10;99.90
9987;DHT22;5033;46.310;11.214;2024-02-21T05:06:43;5.00;99.90
9987;DHT22;5033;46.310;11.214;2024-02-21T05:09:10;5.00;99.90
9987;DHT22;5033;46.310;11.214;2024-02-21T05:11:39;5.00;99.90
9987;DHT22;5033;46.310;11.214;2024-02-21T05:14:06;5.00;99.90
9987;DHT22;5033;46.310;11.214;2024-02-21T05:16:35;5.00;99.90
9987;DHT22;5033;46.310;11.214;2024-02-21T05:19:02;5.00;99.90
9987;DHT22;5033;46.310;11.214;2024-02-21T05:21:29;5.00;99.90
9987;DHT22;5033;46.310;11.214;2024-02-21T05:23:57;5.00;99.90
9987;DHT22;5033;46.310;11.214;2024-02-21T05:26:27;5.00;99.90
9987;DHT22;5033;46.310;11.214;2024-02-21T05:28:54;4.90;99.90
9987;DHT22;5033;46.310;11.214;2024-02-21T05:31:22;4.90;99.90
9987;DHT22;5033;46.310;11.214;2024-02-21T05:33:50;4.90;99.90
9987;DHT22;5033;46.310;11.214;2024-02-21T05:36:17;4.80;99.90
9987;DHT22;5033;46.310;11.214;2024-02-21T05:38:44;4.80;99.90
9987;DHT22;5033;46.310;11.214;2024-02-21T05:41:13;4.80;99.90
9987;DHT22;5033;46.310;11.214;2024-02-21T05:43:40;4.80;99.90
9987;DHT22;5033;46.310;11.214;2024-02-21T05:46:07;4.80;99.90
9987;DHT22;5033;46.310;11.214;2024-02-21T05:48:34;4.80;99.90
9987;DHT22;5033;46.310;11.214;2024-02-21T05:51:03;4.80;99.90
9987;DHT22;5033;46.310;11.214;2024-02-21T05:53:30;4.80;99.90
9987;DHT22;5033;46.310;11.214;2024-02-21T05:55:57;4.70;99.90
9987;DHT22;5033;46.310;11.214;2024-02-21T05:58:24;4.70;99.90
9987;DHT22;5033;46.310;11.214;2024-02-21T06:00:51;4.70;99.90
9987;DHT22;5033;46.310;11.214;2024-02-21T06:03:18;4.60;99.90
9987;DHT22;5033;46.310;11.214;2024-02-21T06:05:45;4.60;99.90
9987;DHT22;5033;46.310;11.214;2024-02-21T06:08:14;4.60;99.90
9987;DHT22;5033;46.310;11.214;2024-02-21T06:10:41;4.60;99.90
9987;DHT22;5033;46.310;11.214;2024-02-21T06:13:08;4.60;99.90
9987;DHT22;5033;46.310;11.214;2024-02-21T06:15:35;4.70;99.90
9987;DHT22;5033;46.310;11.214;2024-02-21T06:18:02;4.70;99.90
9987;DHT22;5033;46.310;11.214;2024-02-21T06:20:29;4.70;99.90
9987;DHT22;5033;46.310;11.214;2024-02-21T06:22:57;4.70;99.90
9987;DHT22;5033;46.310;11.214;2024-02-21T06:25:26;4.70;99.90
9987;DHT22;5033;46.310;11.214;2024-02-21T06:27:53;4.60;99.90
9987;DHT22;5033;46.310;11.214;2024-02-21T06:30:20;4.60;99.90
9987;DHT22;5033;46.310;11.214;2024-02-21T06:32:47;4.70;99.90
9987;DHT22;5033;46.310;11.214;2024-02-21T06:35:14;4.70;99.90
9987;DHT22;5033;46.310;11.214;2024-02-21T06:37:41;4.70;99.90
9987;DHT22;5033;46.310;11.214;2024-02-21T06:40:08;4.70;99.90
9987;DHT22;5033;46.310;11.214;2024-02-21T06:42:37;4.70;99.90
9987;DHT22;5033;46.310;11.214;2024-02-21T06:45:04;4.70;99.90
9987;DHT22;5033;46.310;11.214;2024-02-21T06:47:32;4.80;99.90
9987;DHT22;5033;46.310;11.214;2024-02-21T06:49:58;4.80;99.90
9987;DHT22;5033;46.310;11.214;2024-02-21T06:52:26;4.90;99.90
9987;DHT22;5033;46.310;11.214;2024-02-21T06:54:53;4.90;99.90
9987;DHT22;5033;46.310;11.214;2024-02-21T06:57:20;4.90;99.90
9987;DHT22;5033;46.310;11.214;2024-02-21T06:59:49;4.90;99.90
9987;DHT22;5033;46.310;11.214;2024-02-21T07:02:16;4.90;99.90
9987;DHT22;5033;46.310;11.214;2024-02-21T07:04:43;4.90;99.90
9987;DHT22;5033;46.310;11.214;2024-02-21T07:07:10;4.90;99.90
9987;DHT22;5033;46.310;11.214;2024-02-21T07:09:37;4.90;99.90
9987;DHT22;5033;46.310;11.214;2024-02-21T07:12:04;4.80;99.90
9987;DHT22;5033;46.310;11.214;2024-02-21T07:14:32;4.80;99.90
9987;DHT22;5033;46.310;11.214;2024-02-21T07:17:01;4.80;99.90
9987;DHT22;5033;46.310;11.214;2024-02-21T07:19:29;4.80;99.90
9987;DHT22;5033;46.310;11.214;2024-02-21T07:21:55;4.80;99.90
9987;DHT22;5033;46.310;11.214;2024-02-21T07:24:23;4.80;99.90
9987;DHT22;5033;46.310;11.214;2024-02-21T07:26:50;4.80;99.90
9987;DHT22;5033;46.310;11.214;2024-02-21T07:29:17;5.30;99.90
9987;DHT22;5033;46.310;11.214;2024-02-21T07:31:44;6.40;99.90
9987;DHT22;5033;46.310;11.214;2024-02-21T07:34:16;7.50;99.90
9987;DHT22;5033;46.310;11.214;2024-02-21T07:36:42;8.50;99.90
9987;DHT22;5033;46.310;11.214;2024-02-21T07:39:10;9.40;99.90
9987;DHT22;5033;46.310;11.214;2024-02-21T07:41:37;10.20;99.90
9987;DHT22;5033;46.310;11.214;2024-02-21T07:44:05;10.80;99.30
9987;DHT22;5033;46.310;11.214;2024-02-21T07:46:33;11.10;98.50
9987;DHT22;5033;46.310;11.214;2024-02-21T07:49:00;11.50;97.70
9987;DHT22;5033;46.310;11.214;2024-02-21T07:51:29;11.70;97.30
9987;DHT22;5033;46.310;11.214;2024-02-21T07:53:56;11.90;97.00
9987;DHT22;5033;46.310;11.214;2024-02-21T07:56:23;12.10;96.80
9987;DHT22;5033;46.310;11.214;2024-02-21T07:58:54;12.20;96.30
9987;DHT22;5033;46.310;11.214;2024-02-21T08:01:21;12.30;96.30
9987;DHT22;5033;46.310;11.214;2024-02-21T08:03:48;12.50;95.60
9987;DHT22;5033;46.310;11.214;2024-02-21T08:06:15;12.50;95.60
9987;DHT22;5033;46.310;11.214;2024-02-21T08:08:43;12.80;96.50
9987;DHT22;5033;46.310;11.214;2024-02-21T08:11:10;13.10;95.70
9987;DHT22;5033;46.310;11.214;2024-02-21T08:13:37;13.10;96.00
9987;DHT22;5033;46.310;11.214;2024-02-21T08:16:04;13.30;95.50
9987;DHT22;5033;46.310;11.214;2024-02-21T08:18:31;13.30;95.30
9987;DHT22;5033;46.310;11.214;2024-02-21T08:21:01;13.50;95.10
9987;DHT22;5033;46.310;11.214;2024-02-21T08:23:30;13.60;94.60
9987;DHT22;5033;46.310;11.214;2024-02-21T08:25:58;13.70;94.40
9987;DHT22;5033;46.310;11.214;2024-02-21T08:28:25;13.70;94.50
9987;DHT22;5033;46.310;11.214;2024-02-21T08:30:53;14.00;94.60
9987;DHT22;5033;46.310;11.214;2024-02-21T08:33:19;14.20;94.30
9987;DHT22;5033;46.310;11.214;2024-02-21T08:35:50;14.40;94.20
9987;DHT22;5033;46.310;11.214;2024-02-21T08:38:17;14.60;94.10
9987;DHT22;5033;46.310;11.214;2024-02-21T08:40:44;14.70;93.60
9987;DHT22;5033;46.310;11.214;2024-02-21T08:43:12;14.70;92.70
9987;DHT22;5033;46.310;11.214;2024-02-21T08:45:39;14.60;92.80
9987;DHT22;5033;46.310;11.214;2024-02-21T08:48:07;14.60;93.10
9987;DHT22;5033;46.310;11.214;2024-02-21T08:50:34;14.60;93.10
9987;DHT22;5033;46.310;11.214;2024-02-21T08:53:02;14.80;92.90
9987;DHT22;5033;46.310;11.214;2024-02-21T08:55:29;15.00;92.80
9987;DHT22;5033;46.310;11.214;2024-02-21T08:57:56;15.10;92.50
9987;DHT22;5033;46.310;11.214;2024-02-21T09:00:24;15.10;92.20
9987;DHT22;5033;46.310;11.214;2024-02-21T09:02:52;14.80;91.90
9987;DHT22;5033;46.310;11.214;2024-02-21T09:05:21;14.70;93.70
9987;DHT22;5033;46.310;11.214;2024-02-21T09:07:49;14.80;93.90
9987;DHT22;5033;46.310;11.214;2024-02-21T09:10:16;14.90;93.20
9987;DHT22;5033;46.310;11.214;2024-02-21T09:12:43;14.80;93.70
9987;DHT22;5033;46.310;11.214;2024-02-21T09:15:10;15.00;92.60
9987;DHT22;5033;46.310;11.214;2024-02-21T09:17:39;14.80;93.20
9987;DHT22;5033;46.310;11.214;2024-02-21T09:20:07;14.80;93.60
9987;DHT22;5033;46.310;11.214;2024-02-21T09:22:35;14.70;93.30
9987;DHT22;5033;46.310;11.214;2024-02-21T09:25:04;14.70;92.70
9987;DHT22;5033;46.310;11.214;2024-02-21T09:27:31;14.80;92.20
9987;DHT22;5033;46.310;11.214;2024-02-21T09:29:58;14.80;92.30
9987;DHT22;5033;46.310;11.214;2024-02-21T09:32:25;14.70;92.00
9987;DHT22;5033;46.310;11.214;2024-02-21T09:34:54;14.60;91.30
9987;DHT22;5033;46.310;11.214;2024-02-21T09:37:21;14.70;91.90
9987;DHT22;5033;46.310;11.214;2024-02-21T09:39:48;15.10;90.70
9987;DHT22;5033;46.310;11.214;2024-02-21T09:42:19;15.10;91.10
9987;DHT22;5033;46.310;11.214;2024-02-21T09:44:46;15.40;91.70
9987;DHT22;5033;46.310;11.214;2024-02-21T09:47:19;15.40;91.00
9987;DHT22;5033;46.310;11.214;2024-02-21T09:49:49;15.60;89.90
9987;DHT22;5033;46.310;11.214;2024-02-21T09:52:19;15.60;90.30
9987;DHT22;5033;46.310;11.214;2024-02-21T09:54:47;15.60;90.20
9987;DHT22;5033;46.310;11.214;2024-02-21T09:57:15;15.70;90.10
9987;DHT22;5033;46.310;11.214;2024-02-21T09:59:43;15.60;90.00
9987;DHT22;5033;46.310;11.214;2024-02-21T10:02:11;15.50;89.70
9987;DHT22;5033;46.310;11.214;2024-02-21T10:04:40;15.50;89.50
9987;DHT22;5033;46.310;11.214;2024-02-21T10:07:07;15.60;89.60
9987;DHT22;5033;46.310;11.214;2024-02-21T10:09:36;15.50;88.60
9987;DHT22;5033;46.310;11.214;2024-02-21T10:12:09;15.90;89.80
9987;DHT22;5033;46.310;11.214;2024-02-21T10:14:36;15.90;87.20
9987;DHT22;5033;46.310;11.214;2024-02-21T10:17:04;15.80;88.10
9987;DHT22;5033;46.310;11.214;2024-02-21T10:19:35;15.90;89.20
9987;DHT22;5033;46.310;11.214;2024-02-21T10:22:03;15.80;87.30
9987;DHT22;5033;46.310;11.214;2024-02-21T10:24:30;15.40;87.10
9987;DHT22;5033;46.310;11.214;2024-02-21T10:27:07;15.20;88.00
9987;DHT22;5033;46.310;11.214;2024-02-21T10:29:36;15.40;88.70
9987;DHT22;5033;46.310;11.214;2024-02-21T10:32:05;15.30;87.90
9987;DHT22;5033;46.310;11.214;2024-02-21T10:34:32;15.20;88.00
9987;DHT22;5033;46.310;11.214;2024-02-21T10:37:01;15.20;88.20
9987;DHT22;5033;46.310;11.214;2024-02-21T10:39:29;15.20;88.60
9987;DHT22;5033;46.310;11.214;2024-02-21T10:41:59;15.40;87.40
9987;DHT22;5033;46.310;11.214;2024-02-21T10:44:28;15.60;88.30
9987;DHT22;5033;46.310;11.214;2024-02-21T10:46:56;15.70;86.30
9987;DHT22;5033;46.310;11.214;2024-02-21T10:49:24;16.00;85.90
9987;DHT22;5033;46.310;11.214;2024-02-21T10:51:56;16.10;86.60
9987;DHT22;5033;46.310;11.214;2024-02-21T10:54:44;16.00;86.90
9987;DHT22;5033;46.310;11.214;2024-02-21T10:57:13;16.10;86.50
9987;DHT22;5033;46.310;11.214;2024-02-21T10:59:44;16.20;85.80
9987;DHT22;5033;46.310;11.214;2024-02-21T11:02:11;16.30;86.10
9987;DHT22;5033;46.310;11.214;2024-02-21T11:04:38;16.30;85.90
9987;DHT22;5033;46.310;11.214;2024-02-21T11:07:06;16.00;85.70
9987;DHT22;5033;46.310;11.214;2024-02-21T11:09:34;15.90;86.20
9987;DHT22;5033;46.310;11.214;2024-02-21T11:12:03;16.00;86.50
9987;DHT22;5033;46.310;11.214;2024-02-21T11:14:30;16.20;87.70
9987;DHT22;5033;46.310;11.214;2024-02-21T11:17:02;16.20;86.70
9987;DHT22;5033;46.310;11.214;2024-02-21T11:19:30;16.50;91.90
9987;DHT22;5033;46.310;11.214;2024-02-21T11:21:58;16.60;87.80
9987;DHT22;5033;46.310;11.214;2024-02-21T11:24:27;16.40;86.70
9987;DHT22;5033;46.310;11.214;2024-02-21T11:26:55;16.60;90.20
9987;DHT22;5033;46.310;11.214;2024-02-21T11:29:25;17.00;90.10
9987;DHT22;5033;46.310;11.214;2024-02-21T11:31:53;16.90;87.50
9987;DHT22;5033;46.310;11.214;2024-02-21T11:34:21;17.00;90.40
9987;DHT22;5033;46.310;11.214;2024-02-21T11:36:49;17.00;90.10
9987;DHT22;5033;46.310;11.214;2024-02-21T11:39:20;17.00;85.00
9987;DHT22;5033;46.310;11.214;2024-02-21T11:41:48;16.40;88.20
9987;DHT22;5033;46.310;11.214;2024-02-21T11:44:25;16.60;90.20
9987;DHT22;5033;46.310;11.214;2024-02-21T11:46:52;16.50;90.90
9987;DHT22;5033;46.310;11.214;2024-02-21T11:49:21;16.60;88.60
9987;DHT22;5033;46.310;11.214;2024-02-21T11:51:47;16.40;86.70
9987;DHT22;5033;46.310;11.214;2024-02-21T11:54:14;16.30;86.00
9987;DHT22;5033;46.310;11.214;2024-02-21T11:56:42;16.10;85.40
9987;DHT22;5033;46.310;11.214;2024-02-21T11:59:09;15.90;84.90
9987;DHT22;5033;46.310;11.214;2024-02-21T12:01:36;16.00;85.00
9987;DHT22;5033;46.310;11.214;2024-02-21T12:04:03;16.00;83.20
9987;DHT22;5033;46.310;11.214;2024-02-21T12:06:32;16.00;82.00
9987;DHT22;5033;46.310;11.214;2024-02-21T12:08:59;16.00;85.20
9987;DHT22;5033;46.310;11.214;2024-02-21T12:11:27;16.10;84.50
9987;DHT22;5033;46.310;11.214;2024-02-21T12:14:01;16.10;84.40
9987;DHT22;5033;46.310;11.214;2024-02-21T12:16:29;16.30;81.80
9987;DHT22;5033;46.310;11.214;2024-02-21T12:18:57;16.10;81.90
9987;DHT22;5033;46.310;11.214;2024-02-21T12:21:24;16.00;83.00
9987;DHT22;5033;46.310;11.214;2024-02-21T12:23:55;16.20;83.70
9987;DHT22;5033;46.310;11.214;2024-02-21T12:26:23;16.50;83.70
9987;DHT22;5033;46.310;11.214;2024-02-21T12:28:50;16.80;83.60
9987;DHT22;5033;46.310;11.214;2024-02-21T12:31:17;16.70;83.50
9987;DHT22;5033;46.310;11.214;2024-02-21T12:33:44;16.50;83.70
9987;DHT22;5033;46.310;11.214;2024-02-21T12:36:11;16.40;83.20
9987;DHT22;5033;46.310;11.214;2024-02-21T12:38:38;16.60;82.20
9987;DHT22;5033;46.310;11.214;2024-02-21T12:41:06;16.60;82.70
9987;DHT22;5033;46.310;11.214;2024-02-21T12:43:34;16.60;81.80
9987;DHT22;5033;46.310;11.214;2024-02-21T12:46:01;16.60;83.00
9987;DHT22;5033;46.310;11.214;2024-02-21T12:48:28;16.50;80.90
9987;DHT22;5033;46.310;11.214;2024-02-21T12:50:55;16.30;81.80
9987;DHT22;5033;46.310;11.214;2024-02-21T12:53:22;16.40;81.20
9987;DHT22;5033;46.310;11.214;2024-02-21T12:55:49;16.40;80.40
9987;DHT22;5033;46.310;11.214;2024-02-21T12:58:18;16.30;81.60
9987;DHT22;5033;46.310;11.214;2024-02-21T13:00:45;16.50;81.00
9987;DHT22;5033;46.310;11.214;2024-02-21T13:03:12;16.50;80.20
9987;DHT22;5033;46.310;11.214;2024-02-21T13:05:39;16.50;79.90
9987;DHT22;5033;46.310;11.214;2024-02-21T13:08:06;16.50;78.30
9987;DHT22;5033;46.310;11.214;2024-02-21T13:10:33;16.60;78.50
9987;DHT22;5033;46.310;11.214;2024-02-21T13:13:01;16.60;78.70
9987;DHT22;5033;46.310;11.214;2024-02-21T13:15:29;16.50;79.50
9987;DHT22;5033;46.310;11.214;2024-02-21T13:17:56;16.50;79.30
9987;DHT22;5033;46.310;11.214;2024-02-21T13:20:24;16.60;79.60
9987;DHT22;5033;46.310;11.214;2024-02-21T13:22:52;16.80;79.20
9987;DHT22;5033;46.310;11.214;2024-02-21T13:25:19;16.70;78.30
9987;DHT22;5033;46.310;11.214;2024-02-21T13:27:46;16.50;79.10
9987;DHT22;5033;46.310;11.214;2024-02-21T13:30:14;16.50;78.70
9987;DHT22;5033;46.310;11.214;2024-02-21T13:32:43;16.20;78.10
9987;DHT22;5033;46.310;11.214;2024-02-21T13:35:11;16.30;78.10
9987;DHT22;5033;46.310;11.214;2024-02-21T13:37:38;16.20;77.20
9987;DHT22;5033;46.310;11.214;2024-02-21T13:40:06;16.20;77.10
9987;DHT22;5033;46.310;11.214;2024-02-21T13:42:34;16.20;75.80
9987;DHT22;5033;46.310;11.214;2024-02-21T13:45:02;16.10;77.70
9987;DHT22;5033;46.310;11.214;2024-02-21T13:47:31;16.00;78.10
9987;DHT22;5033;46.310;11.214;2024-02-21T13:49:59;16.10;78.60
9987;DHT22;5033;46.310;11.214;2024-02-21T13:52:26;16.30;78.70
9987;DHT22;5033;46.310;11.214;2024-02-21T13:54:53;16.30;78.10
9987;DHT22;5033;46.310;11.214;2024-02-21T13:57:20;16.40;78.40
9987;DHT22;5033;46.310;11.214;2024-02-21T13:59:47;16.40;78.70
9987;DHT22;5033;46.310;11.214;2024-02-21T14:02:14;16.10;78.50
9987;DHT22;5033;46.310;11.214;2024-02-21T14:04:41;15.90;78.40
9987;DHT22;5033;46.310;11.214;2024-02-21T14:07:09;15.60;78.00
9987;DHT22;5033;46.310;11.214;2024-02-21T14:09:36;15.40;79.10
9987;DHT22;5033;46.310;11.214;2024-02-21T14:12:03;15.50;80.00
9987;DHT22;5033;46.310;11.214;2024-02-21T14:14:34;15.60;79.80
9987;DHT22;5033;46.310;11.214;2024-02-21T14:17:01;15.50;80.20
9987;DHT22;5033;46.310;11.214;2024-02-21T14:19:28;15.50;80.10
9987;DHT22;5033;46.310;11.214;2024-02-21T14:21:55;15.40;80.50
9987;DHT22;5033;46.310;11.214;2024-02-21T14:24:23;15.40;81.60
9987;DHT22;5033;46.310;11.214;2024-02-21T14:26:50;15.30;81.50
9987;DHT22;5033;46.310;11.214;2024-02-21T14:29:17;15.40;82.10
9987;DHT22;5033;46.310;11.214;2024-02-21T14:31:44;15.50;82.30
9987;DHT22;5033;46.310;11.214;2024-02-21T14:34:11;15.40;80.60
9987;DHT22;5033;46.310;11.214;2024-02-21T14:36:38;15.50;82.30
9987;DHT22;5033;46.310;11.214;2024-02-21T14:39:06;15.60;82.50
9987;DHT22;5033;46.310;11.214;2024-02-21T14:41:34;15.70;82.30
9987;DHT22;5033;46.310;11.214;2024-02-21T14:44:02;15.80;82.50
9987;DHT22;5033;46.310;11.214;2024-02-21T14:46:29;15.90;82.70
9987;DHT22;5033;46.310;11.214;2024-02-21T14:48:56;15.80;84.30
9987;DHT22;5033;46.310;11.214;2024-02-21T14:51:23;15.60;82.60
9987;DHT22;5033;46.310;11.214;2024-02-21T14:53:50;15.50;82.90
9987;DHT22;5033;46.310;11.214;2024-02-21T14:56:17;15.50;83.20
9987;DHT22;5033;46.310;11.214;2024-02-21T14:58:45;15.50;83.40
9987;DHT22;5033;46.310;11.214;2024-02-21T15:01:13;15.60;84.10
9987;DHT22;5033;46.310;11.214;2024-02-21T15:03:41;15.60;84.40
9987;DHT22;5033;46.310;11.214;2024-02-21T15:06:09;15.50;84.10
9987;DHT22;5033;46.310;11.214;2024-02-21T15:08:36;15.40;84.60
9987;DHT22;5033;46.310;11.214;2024-02-21T15:11:03;15.30;84.20
9987;DHT22;5033;46.310;11.214;2024-02-21T15:13:30;15.10;84.60
9987;DHT22;5033;46.310;11.214;2024-02-21T15:15:58;15.00;85.60
9987;DHT22;5033;46.310;11.214;2024-02-21T15:18:25;15.00;86.20
9987;DHT22;5033;46.310;11.214;2024-02-21T15:20:52;15.00;86.20
9987;DHT22;5033;46.310;11.214;2024-02-21T15:23:19;14.90;86.20
9987;DHT22;5033;46.310;11.214;2024-02-21T15:25:46;14.90;86.70
9987;DHT22;5033;46.310;11.214;2024-02-21T15:28:13;14.90;86.10
9987;DHT22;5033;46.310;11.214;2024-02-21T15:30:40;14.70;86.00
9987;DHT22;5033;46.310;11.214;2024-02-21T15:33:08;14.60;86.10
9987;DHT22;5033;46.310;11.214;2024-02-21T15:35:35;14.50;87.10
9987;DHT22;5033;46.310;11.214;2024-02-21T15:38:02;14.40;87.50
9987;DHT22;5033;46.310;11.214;2024-02-21T15:40:30;14.40;88.90
9987;DHT22;5033;46.310;11.214;2024-02-21T15:43:01;14.40;89.70
9987;DHT22;5033;46.310;11.214;2024-02-21T15:45:28;14.30;90.10
9987;DHT22;5033;46.310;11.214;2024-02-21T15:47:55;14.30;90.50
9987;DHT22;5033;46.310;11.214;2024-02-21T15:50:23;14.20;92.20
9987;DHT22;5033;46.310;11.214;2024-02-21T15:52:53;14.30;92.10
9987;DHT22;5033;46.310;11.214;2024-02-21T15:55:20;14.20;91.80